sensor_id;sensor_type;location;lat;lon;timestamp;P1;durP1;ratioP1;P2;durP2;ratioP2
71763;SDS011;59602;52.142;5.408;2022-08-30T00:00:24;3.90;;;1.83;;
71763;SDS011;59602;52.142;5.408;2022-08-30T00:03:42;5.50;;;1.75;;
71763;SDS011;59602;52.142;5.408;2022-08-30T00:06:45;4.00;;;1.85;;
71763;SDS011;59602;52.142;5.408;2022-08-30T00:09:15;6.10;;;2.38;;
71763;SDS011;59602;52.142;5.408;2022-08-30T00:11:58;5.15;;;1.80;;
71763;SDS011;59602;52.142;5.408;2022-08-30T00:14:51;5.00;;;2.03;;
71763;SDS011;59602;52.142;5.408;2022-08-30T00:17:40;4.10;;;1.92;;
71763;SDS011;59602;52.142;5.408;2022-08-30T00:20:09;3.15;;;1.80;;
71763;SDS011;59602;52.142;5.408;2022-08-30T00:22:39;5.45;;;2.33;;
71763;SDS011;59602;52.142;5.408;2022-08-30T00:25:26;3.80;;;2.20;;
71763;SDS011;59602;52.142;5.408;2022-08-30T00:27:53;4.03;;;1.87;;
71763;SDS011;59602;52.142;5.408;2022-08-30T00:30:21;5.97;;;2.30;;
71763;SDS011;59602;52.142;5.408;2022-08-30T00:32:52;5.22;;;2.00;;
71763;SDS011;59602;52.142;5.408;2022-08-30T00:35:42;4.80;;;2.22;;
71763;SDS011;59602;52.142;5.408;2022-08-30T00:38:41;4.78;;;2.25;;
71763;SDS011;59602;52.142;5.408;2022-08-30T00:41:41;4.53;;;2.17;;
71763;SDS011;59602;52.142;5.408;2022-08-30T00:44:09;2.90;;;1.80;;
71763;SDS011;59602;52.142;5.408;2022-08-30T00:46:37;4.22;;;1.85;;
71763;SDS011;59602;52.142;5.408;2022-08-30T00:49:05;4.03;;;2.17;;
71763;SDS011;59602;52.142;5.408;2022-08-30T00:51:37;10.02;;;2.30;;
71763;SDS011;59602;52.142;5.408;2022-08-30T00:54:27;4.27;;;2.20;;
71763;SDS011;59602;52.142;5.408;2022-08-30T00:56:58;7.78;;;2.30;;
71763;SDS011;59602;52.142;5.408;2022-08-30T00:59:27;3.70;;;2.22;;
71763;SDS011;59602;52.142;5.408;2022-08-30T01:01:59;5.82;;;2.50;;
71763;SDS011;59602;52.142;5.408;2022-08-30T01:04:28;4.43;;;2.47;;
71763;SDS011;59602;52.142;5.408;2022-08-30T01:06:56;6.93;;;2.53;;
71763;SDS011;59602;52.142;5.408;2022-08-30T01:09:46;5.03;;;2.47;;
71763;SDS011;59602;52.142;5.408;2022-08-30T01:12:50;5.63;;;2.50;;
71763;SDS011;59602;52.142;5.408;2022-08-30T01:15:18;5.45;;;2.45;;
71763;SDS011;59602;52.142;5.408;2022-08-30T01:17:47;4.53;;;2.10;;
71763;SDS011;59602;52.142;5.408;2022-08-30T01:20:18;8.77;;;2.80;;
71763;SDS011;59602;52.142;5.408;2022-08-30T01:25:18;4.72;;;2.58;;
71763;SDS011;59602;52.142;5.408;2022-08-30T01:27:54;6.70;;;3.00;;
71763;SDS011;59602;52.142;5.408;2022-08-30T01:30:30;5.18;;;2.53;;
71763;SDS011;59602;52.142;5.408;2022-08-30T01:33:20;5.23;;;2.80;;
71763;SDS011;59602;52.142;5.408;2022-08-30T01:35:52;5.40;;;2.70;;
71763;SDS011;59602;52.142;5.408;2022-08-30T01:38:24;7.50;;;3.00;;
71763;SDS011;59602;52.142;5.408;2022-08-30T01:40:57;4.68;;;2.90;;
71763;SDS011;59602;52.142;5.408;2022-08-30T01:43:32;5.80;;;2.85;;
71763;SDS011;59602;52.142;5.408;2022-08-30T01:46:16;6.37;;;3.30;;
71763;SDS011;59602;52.142;5.408;2022-08-30T01:49:09;4.50;;;2.55;;
71763;SDS011;59602;52.142;5.408;2022-08-30T01:51:57;5.75;;;2.67;;
71763;SDS011;59602;52.142;5.408;2022-08-30T01:54:45;6.22;;;3.05;;
71763;SDS011;59602;52.142;5.408;2022-08-30T01:57:14;6.72;;;2.85;;
71763;SDS011;59602;52.142;5.408;2022-08-30T02:00:06;5.43;;;3.00;;
71763;SDS011;59602;52.142;5.408;2022-08-30T02:02:34;6.07;;;3.20;;
71763;SDS011;59602;52.142;5.408;2022-08-30T02:05:30;3.90;;;2.67;;
71763;SDS011;59602;52.142;5.408;2022-08-30T02:08:34;5.63;;;2.90;;
71763;SDS011;59602;52.142;5.408;2022-08-30T02:11:02;7.75;;;3.35;;
71763;SDS011;59602;52.142;5.408;2022-08-30T02:13:34;5.70;;;3.40;;
71763;SDS011;59602;52.142;5.408;2022-08-30T02:16:33;6.35;;;3.45;;
71763;SDS011;59602;52.142;5.408;2022-08-30T02:19:02;4.63;;;3.20;;
71763;SDS011;59602;52.142;5.408;2022-08-30T02:21:48;5.70;;;3.38;;
71763;SDS011;59602;52.142;5.408;2022-08-30T02:24:17;5.20;;;3.22;;
71763;SDS011;59602;52.142;5.408;2022-08-30T02:27:00;6.13;;;3.50;;
71763;SDS011;59602;52.142;5.408;2022-08-30T02:29:29;6.20;;;3.47;;
71763;SDS011;59602;52.142;5.408;2022-08-30T02:32:04;6.72;;;3.50;;
71763;SDS011;59602;52.142;5.408;2022-08-30T02:34:33;6.05;;;3.90;;
71763;SDS011;59602;52.142;5.408;2022-08-30T02:37:24;7.30;;;3.88;;
71763;SDS011;59602;52.142;5.408;2022-08-30T02:40:10;6.77;;;3.60;;
71763;SDS011;59602;52.142;5.408;2022-08-30T02:42:55;9.50;;;4.35;;
71763;SDS011;59602;52.142;5.408;2022-08-30T02:45:25;6.15;;;3.80;;
71763;SDS011;59602;52.142;5.408;2022-08-30T02:47:56;7.50;;;3.45;;
71763;SDS011;59602;52.142;5.408;2022-08-30T02:50:23;7.75;;;4.30;;
71763;SDS011;59602;52.142;5.408;2022-08-30T02:53:24;6.83;;;3.53;;
71763;SDS011;59602;52.142;5.408;2022-08-30T02:56:07;6.20;;;4.28;;
71763;SDS011;59602;52.142;5.408;2022-08-30T02:58:36;6.68;;;3.80;;
71763;SDS011;59602;52.142;5.408;2022-08-30T03:01:28;6.30;;;3.50;;
71763;SDS011;59602;52.142;5.408;2022-08-30T03:04:29;6.53;;;3.47;;
71763;SDS011;59602;52.142;5.408;2022-08-30T03:06:58;5.60;;;3.60;;
71763;SDS011;59602;52.142;5.408;2022-08-30T03:09:29;5.35;;;3.60;;
71763;SDS011;59602;52.142;5.408;2022-08-30T03:12:03;6.03;;;3.75;;
71763;SDS011;59602;52.142;5.408;2022-08-30T03:14:53;6.68;;;4.25;;
71763;SDS011;59602;52.142;5.408;2022-08-30T03:17:42;5.18;;;3.50;;
71763;SDS011;59602;52.142;5.408;2022-08-30T03:20:09;6.97;;;4.53;;
71763;SDS011;59602;52.142;5.408;2022-08-30T03:23:11;6.80;;;4.13;;
71763;SDS011;59602;52.142;5.408;2022-08-30T03:25:47;5.80;;;3.80;;
71763;SDS011;59602;52.142;5.408;2022-08-30T03:28:30;5.43;;;3.63;;
71763;SDS011;59602;52.142;5.408;2022-08-30T03:30:59;6.63;;;4.10;;
71763;SDS011;59602;52.142;5.408;2022-08-30T03:34:08;7.03;;;3.90;;
71763;SDS011;59602;52.142;5.408;2022-08-30T03:36:54;5.90;;;3.40;;
71763;SDS011;59602;52.142;5.408;2022-08-30T03:42:51;7.30;;;4.10;;
71763;SDS011;59602;52.142;5.408;2022-08-30T03:45:18;7.45;;;3.92;;
71763;SDS011;59602;52.142;5.408;2022-08-30T03:48:11;7.43;;;4.30;;
71763;SDS011;59602;52.142;5.408;2022-08-30T03:50:38;6.22;;;3.90;;
71763;SDS011;59602;52.142;5.408;2022-08-30T03:53:35;8.70;;;4.20;;
71763;SDS011;59602;52.142;5.408;2022-08-30T03:56:46;7.18;;;3.53;;
71763;SDS011;59602;52.142;5.408;2022-08-30T03:59:15;5.97;;;4.00;;
71763;SDS011;59602;52.142;5.408;2022-08-30T04:02:37;7.07;;;3.70;;
71763;SDS011;59602;52.142;5.408;2022-08-30T04:08:21;6.30;;;3.83;;
71763;SDS011;59602;52.142;5.408;2022-08-30T04:10:50;6.15;;;3.67;;
71763;SDS011;59602;52.142;5.408;2022-08-30T04:13:21;6.28;;;4.32;;
71763;SDS011;59602;52.142;5.408;2022-08-30T04:15:51;7.43;;;4.07;;
71763;SDS011;59602;52.142;5.408;2022-08-30T04:18:20;6.18;;;3.85;;
71763;SDS011;59602;52.142;5.408;2022-08-30T04:20:50;7.20;;;4.22;;
71763;SDS011;59602;52.142;5.408;2022-08-30T04:23:20;8.23;;;3.90;;
71763;SDS011;59602;52.142;5.408;2022-08-30T04:25:46;8.45;;;4.03;;
71763;SDS011;59602;52.142;5.408;2022-08-30T04:29:03;8.97;;;5.07;;
71763;SDS011;59602;52.142;5.408;2022-08-30T04:31:11;6.32;;;4.10;;
71763;SDS011;59602;52.142;5.408;2022-08-30T04:33:40;7.40;;;4.57;;
71763;SDS011;59602;52.142;5.408;2022-08-30T04:36:31;6.75;;;4.22;;
71763;SDS011;59602;52.142;5.408;2022-08-30T04:39:11;8.23;;;4.10;;
71763;SDS011;59602;52.142;5.408;2022-08-30T04:41:42;5.70;;;3.90;;
71763;SDS011;59602;52.142;5.408;2022-08-30T04:44:38;7.63;;;4.22;;
71763;SDS011;59602;52.142;5.408;2022-08-30T04:47:29;7.03;;;4.13;;
71763;SDS011;59602;52.142;5.408;2022-08-30T04:49:55;6.47;;;4.07;;
71763;SDS011;59602;52.142;5.408;2022-08-30T04:52:22;9.60;;;4.63;;
71763;SDS011;59602;52.142;5.408;2022-08-30T04:54:56;6.80;;;4.30;;
71763;SDS011;59602;52.142;5.408;2022-08-30T04:57:24;7.88;;;4.45;;
71763;SDS011;59602;52.142;5.408;2022-08-30T04:59:55;7.03;;;4.50;;
71763;SDS011;59602;52.142;5.408;2022-08-30T05:02:49;7.65;;;3.92;;
71763;SDS011;59602;52.142;5.408;2022-08-30T05:05:46;10.27;;;4.38;;
71763;SDS011;59602;52.142;5.408;2022-08-30T05:08:18;7.40;;;4.47;;
71763;SDS011;59602;52.142;5.408;2022-08-30T05:11:12;8.65;;;4.60;;
71763;SDS011;59602;52.142;5.408;2022-08-30T05:13:43;7.93;;;4.47;;
71763;SDS011;59602;52.142;5.408;2022-08-30T05:16:10;7.13;;;4.25;;
71763;SDS011;59602;52.142;5.408;2022-08-30T05:19:08;7.88;;;4.47;;
71763;SDS011;59602;52.142;5.408;2022-08-30T05:21:55;6.67;;;4.60;;
71763;SDS011;59602;52.142;5.408;2022-08-30T05:24:43;6.82;;;4.28;;
71763;SDS011;59602;52.142;5.408;2022-08-30T05:27:12;7.63;;;4.57;;
71763;SDS011;59602;52.142;5.408;2022-08-30T05:30:58;5.40;;;3.58;;
71763;SDS011;59602;52.142;5.408;2022-08-30T05:37:02;8.20;;;5.30;;
71763;SDS011;59602;52.142;5.408;2022-08-30T05:39:29;7.05;;;4.82;;
71763;SDS011;59602;52.142;5.408;2022-08-30T05:42:09;7.60;;;4.75;;
71763;SDS011;59602;52.142;5.408;2022-08-30T05:44:42;6.80;;;3.72;;
71763;SDS011;59602;52.142;5.408;2022-08-30T05:47:09;8.07;;;4.40;;
71763;SDS011;59602;52.142;5.408;2022-08-30T05:49:52;6.27;;;3.73;;
71763;SDS011;59602;52.142;5.408;2022-08-30T05:52:21;5.93;;;4.18;;
71763;SDS011;59602;52.142;5.408;2022-08-30T05:55:16;6.90;;;4.18;;
71763;SDS011;59602;52.142;5.408;2022-08-30T05:59:02;5.60;;;4.05;;
71763;SDS011;59602;52.142;5.408;2022-08-30T06:01:45;5.82;;;3.80;;
71763;SDS011;59602;52.142;5.408;2022-08-30T06:04:12;8.83;;;4.43;;
71763;SDS011;59602;52.142;5.408;2022-08-30T06:06:40;6.53;;;4.15;;
71763;SDS011;59602;52.142;5.408;2022-08-30T06:09:34;9.25;;;4.40;;
71763;SDS011;59602;52.142;5.408;2022-08-30T06:12:05;5.07;;;3.75;;
71763;SDS011;59602;52.142;5.408;2022-08-30T06:14:32;6.38;;;3.95;;
71763;SDS011;59602;52.142;5.408;2022-08-30T06:17:01;5.87;;;3.83;;
71763;SDS011;59602;52.142;5.408;2022-08-30T06:19:30;11.05;;;3.70;;
71763;SDS011;59602;52.142;5.408;2022-08-30T06:21:56;5.78;;;3.72;;
71763;SDS011;59602;52.142;5.408;2022-08-30T06:24:26;6.20;;;4.25;;
71763;SDS011;59602;52.142;5.408;2022-08-30T06:27:13;6.82;;;4.18;;
71763;SDS011;59602;52.142;5.408;2022-08-30T06:29:40;5.30;;;3.57;;
71763;SDS011;59602;52.142;5.408;2022-08-30T06:32:07;4.63;;;3.60;;
71763;SDS011;59602;52.142;5.408;2022-08-30T06:34:33;5.72;;;3.70;;
71763;SDS011;59602;52.142;5.408;2022-08-30T06:37:46;7.60;;;4.10;;
71763;SDS011;59602;52.142;5.408;2022-08-30T06:40:16;5.53;;;3.25;;
71763;SDS011;59602;52.142;5.408;2022-08-30T06:43:07;6.17;;;2.97;;
71763;SDS011;59602;52.142;5.408;2022-08-30T06:45:47;5.28;;;3.10;;
71763;SDS011;59602;52.142;5.408;2022-08-30T06:48:36;5.35;;;2.70;;
71763;SDS011;59602;52.142;5.408;2022-08-30T06:54:04;3.80;;;2.38;;
71763;SDS011;59602;52.142;5.408;2022-08-30T06:56:57;5.03;;;2.50;;
71763;SDS011;59602;52.142;5.408;2022-08-30T06:59:26;6.10;;;2.10;;
71763;SDS011;59602;52.142;5.408;2022-08-30T07:01:54;4.78;;;2.30;;
71763;SDS011;59602;52.142;5.408;2022-08-30T07:05:07;4.40;;;2.17;;
71763;SDS011;59602;52.142;5.408;2022-08-30T07:07:58;2.90;;;1.70;;
71763;SDS011;59602;52.142;5.408;2022-08-30T07:11:35;3.43;;;1.43;;
71763;SDS011;59602;52.142;5.408;2022-08-30T07:14:15;3.55;;;1.48;;
71763;SDS011;59602;52.142;5.408;2022-08-30T07:16:44;2.33;;;1.30;;
71763;SDS011;59602;52.142;5.408;2022-08-30T07:20:22;2.25;;;1.02;;
71763;SDS011;59602;52.142;5.408;2022-08-30T07:22:53;3.45;;;1.05;;
71763;SDS011;59602;52.142;5.408;2022-08-30T07:25:57;2.30;;;0.80;;
71763;SDS011;59602;52.142;5.408;2022-08-30T07:28:54;4.03;;;0.80;;
71763;SDS011;59602;52.142;5.408;2022-08-30T07:31:44;2.10;;;0.95;;
71763;SDS011;59602;52.142;5.408;2022-08-30T07:34:39;4.10;;;0.60;;
71763;SDS011;59602;52.142;5.408;2022-08-30T07:37:27;1.27;;;0.47;;
71763;SDS011;59602;52.142;5.408;2022-08-30T07:40:20;2.70;;;0.40;;
71763;SDS011;59602;52.142;5.408;2022-08-30T07:43:07;1.65;;;0.30;;
71763;SDS011;59602;52.142;5.408;2022-08-30T07:45:35;2.75;;;0.80;;
71763;SDS011;59602;52.142;5.408;2022-08-30T07:48:32;2.03;;;0.30;;
71763;SDS011;59602;52.142;5.408;2022-08-30T07:51:03;1.10;;;0.40;;
71763;SDS011;59602;52.142;5.408;2022-08-30T07:54:13;1.20;;;0.33;;
71763;SDS011;59602;52.142;5.408;2022-08-30T07:57:20;1.92;;;0.30;;
71763;SDS011;59602;52.142;5.408;2022-08-30T08:00:29;1.88;;;0.20;;
71763;SDS011;59602;52.142;5.408;2022-08-30T08:03:03;1.63;;;0.30;;
71763;SDS011;59602;52.142;5.408;2022-08-30T08:06:21;1.67;;;0.28;;
71763;SDS011;59602;52.142;5.408;2022-08-30T08:09:09;2.90;;;0.40;;
71763;SDS011;59602;52.142;5.408;2022-08-30T08:11:40;2.72;;;0.30;;
71763;SDS011;59602;52.142;5.408;2022-08-30T08:14:44;1.25;;;0.30;;
71763;SDS011;59602;52.142;5.408;2022-08-30T08:17:11;0.98;;;0.30;;
71763;SDS011;59602;52.142;5.408;2022-08-30T08:19:56;3.72;;;0.40;;
71763;SDS011;59602;52.142;5.408;2022-08-30T08:22:59;2.07;;;0.30;;
71763;SDS011;59602;52.142;5.408;2022-08-30T08:25:32;0.93;;;0.30;;
71763;SDS011;59602;52.142;5.408;2022-08-30T08:28:30;1.58;;;0.20;;
71763;SDS011;59602;52.142;5.408;2022-08-30T08:31:23;2.38;;;0.30;;
71763;SDS011;59602;52.142;5.408;2022-08-30T08:34:24;2.00;;;0.30;;
71763;SDS011;59602;52.142;5.408;2022-08-30T08:36:55;2.07;;;0.43;;
71763;SDS011;59602;52.142;5.408;2022-08-30T08:40:07;1.85;;;0.40;;
71763;SDS011;59602;52.142;5.408;2022-08-30T08:48:13;2.35;;;0.30;;
71763;SDS011;59602;52.142;5.408;2022-08-30T08:51:26;1.40;;;0.30;;
71763;SDS011;59602;52.142;5.408;2022-08-30T08:54:15;1.95;;;0.40;;
71763;SDS011;59602;52.142;5.408;2022-08-30T08:56:47;1.52;;;0.22;;
71763;SDS011;59602;52.142;5.408;2022-08-30T08:59:14;1.88;;;0.40;;
71763;SDS011;59602;52.142;5.408;2022-08-30T09:01:41;1.50;;;0.40;;
71763;SDS011;59602;52.142;5.408;2022-08-30T09:04:10;4.73;;;0.40;;
71763;SDS011;59602;52.142;5.408;2022-08-30T09:06:44;1.50;;;0.30;;
71763;SDS011;59602;52.142;5.408;2022-08-30T09:09:19;1.30;;;0.30;;
71763;SDS011;59602;52.142;5.408;2022-08-30T09:11:51;3.08;;;0.40;;
71763;SDS011;59602;52.142;5.408;2022-08-30T09:14:19;3.30;;;0.43;;
71763;SDS011;59602;52.142;5.408;2022-08-30T09:16:57;3.13;;;0.30;;
71763;SDS011;59602;52.142;5.408;2022-08-30T09:19:29;3.50;;;0.40;;
71763;SDS011;59602;52.142;5.408;2022-08-30T09:24:59;1.85;;;0.38;;
71763;SDS011;59602;52.142;5.408;2022-08-30T09:30:33;2.67;;;0.30;;
71763;SDS011;59602;52.142;5.408;2022-08-30T09:33:18;1.40;;;0.30;;
71763;SDS011;59602;52.142;5.408;2022-08-30T09:35:46;1.73;;;0.43;;
71763;SDS011;59602;52.142;5.408;2022-08-30T09:38:31;2.03;;;0.20;;
71763;SDS011;59602;52.142;5.408;2022-08-30T09:41:24;1.85;;;0.30;;
71763;SDS011;59602;52.142;5.408;2022-08-30T09:44:10;1.80;;;0.23;;
71763;SDS011;59602;52.142;5.408;2022-08-30T09:46:44;3.28;;;0.30;;
71763;SDS011;59602;52.142;5.408;2022-08-30T09:49:34;1.30;;;0.20;;
71763;SDS011;59602;52.142;5.408;2022-08-30T09:52:17;2.25;;;0.30;;
71763;SDS011;59602;52.142;5.408;2022-08-30T09:55:18;2.35;;;0.30;;
71763;SDS011;59602;52.142;5.408;2022-08-30T09:58:16;2.70;;;0.40;;
71763;SDS011;59602;52.142;5.408;2022-08-30T10:01:03;1.08;;;0.30;;
71763;SDS011;59602;52.142;5.408;2022-08-30T10:03:35;1.95;;;0.30;;
71763;SDS011;59602;52.142;5.408;2022-08-30T10:06:14;3.33;;;0.30;;
71763;SDS011;59602;52.142;5.408;2022-08-30T10:11:26;2.63;;;0.40;;
71763;SDS011;59602;52.142;5.408;2022-08-30T10:14:26;1.52;;;0.43;;
71763;SDS011;59602;52.142;5.408;2022-08-30T10:17:07;4.72;;;0.50;;
71763;SDS011;59602;52.142;5.408;2022-08-30T10:22:36;2.35;;;0.30;;
71763;SDS011;59602;52.142;5.408;2022-08-30T10:25:13;1.60;;;0.40;;
71763;SDS011;59602;52.142;5.408;2022-08-30T10:27:46;3.03;;;0.30;;
71763;SDS011;59602;52.142;5.408;2022-08-30T10:30:16;3.33;;;0.40;;
71763;SDS011;59602;52.142;5.408;2022-08-30T10:32:48;2.20;;;0.30;;
71763;SDS011;59602;52.142;5.408;2022-08-30T10:35:21;1.35;;;0.30;;
71763;SDS011;59602;52.142;5.408;2022-08-30T10:37:53;2.73;;;0.30;;
71763;SDS011;59602;52.142;5.408;2022-08-30T10:40:31;5.68;;;0.98;;
71763;SDS011;59602;52.142;5.408;2022-08-30T10:43:22;2.60;;;0.40;;
71763;SDS011;59602;52.142;5.408;2022-08-30T10:45:58;1.33;;;0.30;;
71763;SDS011;59602;52.142;5.408;2022-08-30T10:48:29;2.45;;;0.30;;
71763;SDS011;59602;52.142;5.408;2022-08-30T10:51:08;2.57;;;0.43;;
71763;SDS011;59602;52.142;5.408;2022-08-30T10:53:43;1.55;;;0.40;;
71763;SDS011;59602;52.142;5.408;2022-08-30T10:56:28;1.45;;;0.40;;
71763;SDS011;59602;52.142;5.408;2022-08-30T10:59:00;2.05;;;0.40;;
71763;SDS011;59602;52.142;5.408;2022-08-30T11:08:23;1.73;;;0.30;;
71763;SDS011;59602;52.142;5.408;2022-08-30T11:18:42;2.10;;;0.40;;
71763;SDS011;59602;52.142;5.408;2022-08-30T11:21:50;2.40;;;0.50;;
71763;SDS011;59602;52.142;5.408;2022-08-30T11:24:27;3.30;;;0.40;;
71763;SDS011;59602;52.142;5.408;2022-08-30T11:27:38;1.25;;;0.40;;
71763;SDS011;59602;52.142;5.408;2022-08-30T11:34:05;3.05;;;0.40;;
71763;SDS011;59602;52.142;5.408;2022-08-30T11:52:22;2.63;;;0.30;;
71763;SDS011;59602;52.142;5.408;2022-08-30T11:55:38;3.08;;;0.40;;
71763;SDS011;59602;52.142;5.408;2022-08-30T12:01:47;3.08;;;0.70;;
71763;SDS011;59602;52.142;5.408;2022-08-30T12:07:53;1.77;;;0.40;;
71763;SDS011;59602;52.142;5.408;2022-08-30T12:16:43;2.15;;;0.40;;
71763;SDS011;59602;52.142;5.408;2022-08-30T12:19:32;1.30;;;0.50;;
71763;SDS011;59602;52.142;5.408;2022-08-30T12:22:00;1.73;;;0.50;;
71763;SDS011;59602;52.142;5.408;2022-08-30T12:24:31;2.67;;;0.40;;
71763;SDS011;59602;52.142;5.408;2022-08-30T12:27:22;1.20;;;0.32;;
71763;SDS011;59602;52.142;5.408;2022-08-30T12:30:22;2.85;;;0.47;;
71763;SDS011;59602;52.142;5.408;2022-08-30T12:32:52;1.65;;;0.50;;
71763;SDS011;59602;52.142;5.408;2022-08-30T12:35:23;2.70;;;0.60;;
71763;SDS011;59602;52.142;5.408;2022-08-30T12:37:56;3.80;;;0.50;;
71763;SDS011;59602;52.142;5.408;2022-08-30T12:40:59;1.67;;;0.55;;
71763;SDS011;59602;52.142;5.408;2022-08-30T12:43:34;3.35;;;0.50;;
71763;SDS011;59602;52.142;5.408;2022-08-30T12:46:07;1.80;;;0.68;;
71763;SDS011;59602;52.142;5.408;2022-08-30T12:48:43;1.50;;;0.70;;
71763;SDS011;59602;52.142;5.408;2022-08-30T12:51:26;3.40;;;0.70;;
71763;SDS011;59602;52.142;5.408;2022-08-30T12:54:14;3.03;;;0.60;;
71763;SDS011;59602;52.142;5.408;2022-08-30T12:56:46;5.28;;;1.10;;
71763;SDS011;59602;52.142;5.408;2022-08-30T12:59:44;3.55;;;2.55;;
71763;SDS011;59602;52.142;5.408;2022-08-30T13:02:47;1.03;;;0.50;;
71763;SDS011;59602;52.142;5.408;2022-08-30T13:08:09;2.83;;;0.98;;
71763;SDS011;59602;52.142;5.408;2022-08-30T13:10:54;2.38;;;0.50;;
71763;SDS011;59602;52.142;5.408;2022-08-30T13:13:35;1.63;;;0.50;;
71763;SDS011;59602;52.142;5.408;2022-08-30T13:18:51;1.27;;;0.50;;
71763;SDS011;59602;52.142;5.408;2022-08-30T13:21:20;3.15;;;0.90;;
71763;SDS011;59602;52.142;5.408;2022-08-30T13:23:50;2.28;;;0.63;;
71763;SDS011;59602;52.142;5.408;2022-08-30T13:26:21;2.53;;;0.77;;
71763;SDS011;59602;52.142;5.408;2022-08-30T13:28:50;2.47;;;0.87;;
71763;SDS011;59602;52.142;5.408;2022-08-30T13:31:18;3.05;;;0.70;;
71763;SDS011;59602;52.142;5.408;2022-08-30T13:33:47;2.65;;;0.90;;
71763;SDS011;59602;52.142;5.408;2022-08-30T13:36:20;2.08;;;0.90;;
71763;SDS011;59602;52.142;5.408;2022-08-30T13:38:50;2.20;;;0.98;;
71763;SDS011;59602;52.142;5.408;2022-08-30T13:41:17;4.90;;;1.40;;
71763;SDS011;59602;52.142;5.408;2022-08-30T13:43:46;3.03;;;1.05;;
71763;SDS011;59602;52.142;5.408;2022-08-30T13:46:44;2.15;;;0.90;;
71763;SDS011;59602;52.142;5.408;2022-08-30T13:49:33;1.95;;;0.77;;
71763;SDS011;59602;52.142;5.408;2022-08-30T13:52:13;2.85;;;1.38;;
71763;SDS011;59602;52.142;5.408;2022-08-30T13:55:08;3.50;;;1.17;;
71763;SDS011;59602;52.142;5.408;2022-08-30T13:57:35;3.38;;;1.30;;
71763;SDS011;59602;52.142;5.408;2022-08-30T14:00:22;3.00;;;1.25;;
71763;SDS011;59602;52.142;5.408;2022-08-30T14:02:50;2.95;;;1.20;;
71763;SDS011;59602;52.142;5.408;2022-08-30T14:05:23;4.05;;;1.30;;
71763;SDS011;59602;52.142;5.408;2022-08-30T14:08:17;2.00;;;0.70;;
71763;SDS011;59602;52.142;5.408;2022-08-30T14:11:06;2.70;;;0.73;;
71763;SDS011;59602;52.142;5.408;2022-08-30T14:13:34;2.80;;;0.95;;
71763;SDS011;59602;52.142;5.408;2022-08-30T14:16:04;2.20;;;0.80;;
71763;SDS011;59602;52.142;5.408;2022-08-30T14:18:52;2.75;;;0.75;;
71763;SDS011;59602;52.142;5.408;2022-08-30T14:21:19;2.40;;;0.70;;
71763;SDS011;59602;52.142;5.408;2022-08-30T14:23:50;2.30;;;0.80;;
71763;SDS011;59602;52.142;5.408;2022-08-30T14:26:43;1.65;;;0.68;;
71763;SDS011;59602;52.142;5.408;2022-08-30T14:29:14;2.22;;;0.65;;
71763;SDS011;59602;52.142;5.408;2022-08-30T14:31:43;3.33;;;0.80;;
71763;SDS011;59602;52.142;5.408;2022-08-30T14:34:14;2.53;;;0.50;;
71763;SDS011;59602;52.142;5.408;2022-08-30T14:36:43;4.32;;;0.40;;
71763;SDS011;59602;52.142;5.408;2022-08-30T14:39:12;3.05;;;0.60;;
71763;SDS011;59602;52.142;5.408;2022-08-30T14:41:45;2.60;;;0.60;;
71763;SDS011;59602;52.142;5.408;2022-08-30T14:44:15;3.03;;;0.60;;
71763;SDS011;59602;52.142;5.408;2022-08-30T14:46:49;1.20;;;0.47;;
71763;SDS011;59602;52.142;5.408;2022-08-30T14:49:16;1.52;;;0.40;;
71763;SDS011;59602;52.142;5.408;2022-08-30T14:52:27;2.22;;;0.50;;
71763;SDS011;59602;52.142;5.408;2022-08-30T14:55:25;1.33;;;0.47;;
71763;SDS011;59602;52.142;5.408;2022-08-30T14:58:17;2.33;;;0.70;;
71763;SDS011;59602;52.142;5.408;2022-08-30T15:01:28;2.20;;;0.50;;
71763;SDS011;59602;52.142;5.408;2022-08-30T15:05:01;4.13;;;0.88;;
71763;SDS011;59602;52.142;5.408;2022-08-30T15:25:55;3.33;;;0.52;;
71763;SDS011;59602;52.142;5.408;2022-08-30T15:32:40;1.73;;;0.43;;
71763;SDS011;59602;52.142;5.408;2022-08-30T15:40:18;3.65;;;0.50;;
71763;SDS011;59602;52.142;5.408;2022-08-30T15:46:25;4.30;;;0.40;;
71763;SDS011;59602;52.142;5.408;2022-08-30T16:51:20;3.33;;;0.60;;
71763;SDS011;59602;52.142;5.408;2022-08-30T17:17:38;1.17;;;0.30;;
71763;SDS011;59602;52.142;5.408;2022-08-30T17:24:14;3.30;;;0.50;;
71763;SDS011;59602;52.142;5.408;2022-08-30T17:27:41;3.20;;;0.47;;
71763;SDS011;59602;52.142;5.408;2022-08-30T17:33:38;2.45;;;0.40;;
71763;SDS011;59602;52.142;5.408;2022-08-30T17:36:10;3.50;;;0.40;;
71763;SDS011;59602;52.142;5.408;2022-08-30T17:38:37;1.43;;;0.37;;
71763;SDS011;59602;52.142;5.408;2022-08-30T17:41:10;2.15;;;0.30;;
71763;SDS011;59602;52.142;5.408;2022-08-30T17:43:37;1.17;;;0.30;;
71763;SDS011;59602;52.142;5.408;2022-08-30T17:46:05;2.58;;;0.40;;
71763;SDS011;59602;52.142;5.408;2022-08-30T17:48:33;1.77;;;0.50;;
71763;SDS011;59602;52.142;5.408;2022-08-30T17:51:01;1.73;;;0.30;;
71763;SDS011;59602;52.142;5.408;2022-08-30T17:53:28;2.97;;;0.50;;
71763;SDS011;59602;52.142;5.408;2022-08-30T17:55:55;1.67;;;0.45;;
71763;SDS011;59602;52.142;5.408;2022-08-30T17:58:23;2.28;;;0.40;;
71763;SDS011;59602;52.142;5.408;2022-08-30T18:00:50;2.40;;;0.30;;
71763;SDS011;59602;52.142;5.408;2022-08-30T18:03:19;2.03;;;0.40;;
71763;SDS011;59602;52.142;5.408;2022-08-30T18:06:03;3.80;;;0.30;;
71763;SDS011;59602;52.142;5.408;2022-08-30T18:08:31;2.83;;;0.63;;
71763;SDS011;59602;52.142;5.408;2022-08-30T18:10:57;2.13;;;0.40;;
71763;SDS011;59602;52.142;5.408;2022-08-30T18:13:24;1.67;;;0.30;;
71763;SDS011;59602;52.142;5.408;2022-08-30T18:15:51;1.10;;;0.30;;
71763;SDS011;59602;52.142;5.408;2022-08-30T18:18:17;1.92;;;0.30;;
71763;SDS011;59602;52.142;5.408;2022-08-30T18:20:44;1.52;;;0.30;;
71763;SDS011;59602;52.142;5.408;2022-08-30T18:23:11;2.83;;;0.30;;
71763;SDS011;59602;52.142;5.408;2022-08-30T18:25:39;1.40;;;0.30;;
71763;SDS011;59602;52.142;5.408;2022-08-30T18:28:07;3.87;;;0.60;;
71763;SDS011;59602;52.142;5.408;2022-08-30T18:30:37;1.98;;;0.30;;
71763;SDS011;59602;52.142;5.408;2022-08-30T18:33:07;2.88;;;0.40;;
71763;SDS011;59602;52.142;5.408;2022-08-30T18:35:35;1.35;;;0.30;;
71763;SDS011;59602;52.142;5.408;2022-08-30T18:38:02;1.90;;;0.50;;
71763;SDS011;59602;52.142;5.408;2022-08-30T18:40:29;2.63;;;0.40;;
71763;SDS011;59602;52.142;5.408;2022-08-30T18:42:56;2.47;;;0.40;;
71763;SDS011;59602;52.142;5.408;2022-08-30T18:45:23;3.65;;;0.90;;
71763;SDS011;59602;52.142;5.408;2022-08-30T18:47:50;3.78;;;0.50;;
71763;SDS011;59602;52.142;5.408;2022-08-30T18:50:16;3.08;;;0.40;;
71763;SDS011;59602;52.142;5.408;2022-08-30T18:52:45;1.10;;;0.40;;
71763;SDS011;59602;52.142;5.408;2022-08-30T18:55:11;1.38;;;0.35;;
71763;SDS011;59602;52.142;5.408;2022-08-30T18:57:38;2.25;;;0.60;;
71763;SDS011;59602;52.142;5.408;2022-08-30T19:00:05;3.50;;;0.50;;
71763;SDS011;59602;52.142;5.408;2022-08-30T19:02:32;2.10;;;0.60;;
71763;SDS011;59602;52.142;5.408;2022-08-30T19:04:59;4.33;;;0.53;;
71763;SDS011;59602;52.142;5.408;2022-08-30T19:07:26;1.70;;;0.60;;
71763;SDS011;59602;52.142;5.408;2022-08-30T19:09:59;2.33;;;0.60;;
71763;SDS011;59602;52.142;5.408;2022-08-30T19:12:26;1.63;;;0.47;;
71763;SDS011;59602;52.142;5.408;2022-08-30T19:14:53;3.05;;;0.50;;
71763;SDS011;59602;52.142;5.408;2022-08-30T19:17:21;2.23;;;0.47;;
71763;SDS011;59602;52.142;5.408;2022-08-30T19:19:49;3.22;;;0.60;;
71763;SDS011;59602;52.142;5.408;2022-08-30T19:22:18;1.98;;;0.50;;
71763;SDS011;59602;52.142;5.408;2022-08-30T19:24:46;2.63;;;0.50;;
71763;SDS011;59602;52.142;5.408;2022-08-30T19:27:15;1.35;;;0.40;;
71763;SDS011;59602;52.142;5.408;2022-08-30T19:29:46;1.67;;;0.43;;
71763;SDS011;59602;52.142;5.408;2022-08-30T19:32:18;1.92;;;0.70;;